Time;durP1;ratioP1;P1;durP2;ratioP2;P2;SDS_P1;SDS_P2;PMS_P1;PMS_P2;Temp;Humidity;BMP_temperature;BMP_pressure;BME280_temperature;BME280_humidity;BME280_pressure;Samples;Min_cycle;Max_cycle;Signal;HPM_P1;HPM_P2
2022/09/24 00:01:40;;;;;;;;;;;;;;;12.08;97.77;100690.41;10551904;28;19950;-68
2022/09/24 00:06:45;;;;;;;;;;;;;;;11.96;98.58;100687.09;10550819;28;20015;-76
2022/09/24 00:11:48;;;;;;;;;;;;;;;11.95;98.39;100677.53;10550428;28;19955;-73
2022/09/24 00:16:52;;;;;;;;;;;;;;;11.93;98.16;100682.78;10550187;28;19924;-73
2022/09/24 00:21:55;;;;;;;;;;;;;;;11.84;98.13;100671.63;10550683;28;19951;-69
2022/09/24 00:26:59;;;;;;;;;;;;;;;11.81;98.14;100676.81;10550085;28;19924;-77
2022/09/24 00:32:04;;;;;;;;;;;;;;;11.85;97.91;100673.31;10549400;28;19924;-73
2022/09/24 00:37:07;;;;;;;;;;;;;;;11.80;97.75;100667.31;10551503;28;19928;-71
2022/09/24 00:42:10;;;;;;;;;;;;;;;11.73;98.36;100663.91;10549744;28;20256;-70
2022/09/24 00:47:17;;;;;;;;;;;;;;;11.69;97.56;100667.41;10549272;28;19934;-71
2022/09/24 00:52:20;;;;;;;;;;;;;;;11.62;97.33;100665.72;10549403;28;20011;-71
2022/09/24 00:57:24;;;;;;;;;;;;;;;11.50;98.45;100664.09;10548985;28;19935;-70
2022/09/24 01:02:29;;;;;;;;;;;;;;;11.50;97.89;100666.69;10547410;28;20003;-72
2022/09/24 01:07:34;;;;;;;;;;;;;;;11.54;97.28;100657.97;10548760;28;20413;-74
2022/09/24 01:12:44;;;;;;;;;;;;;;;11.49;97.53;100664.13;10548410;28;19964;-72
2022/09/24 01:17:54;;;;;;;;;;;;;;;11.46;97.52;100657.19;10547688;28;19938;-72
2022/09/24 01:23:08;;;;;;;;;;;;;;;11.37;97.73;100653.81;10547593;28;19935;-72
2022/09/24 01:28:18;;;;;;;;;;;;;;;11.30;98.78;100646.97;10547972;28;19924;-71
2022/09/24 01:33:25;;;;;;;;;;;;;;;11.29;99.28;100643.47;10547522;28;19924;-73
2022/09/24 01:38:29;;;;;;;;;;;;;;;11.29;98.75;100645.22;10547721;28;19932;-73
2022/09/24 01:43:32;;;;;;;;;;;;;;;11.31;98.35;100646.06;10547097;28;19951;-71
2022/09/24 01:48:37;;;;;;;;;;;;;;;11.20;99.07;100640.13;10546801;28;19924;-72
2022/09/24 01:53:42;;;;;;;;;;;;;;;11.18;99.26;100645.28;10546851;28;20411;-70
2022/09/24 01:58:49;;;;;;;;;;;;;;;11.21;98.66;100640.09;10547038;28;19923;-72
2022/09/24 02:03:56;;;;;;;;;;;;;;;11.12;98.34;100636.69;10546654;28;19952;-69
2022/09/24 02:08:59;;;;;;;;;;;;;;;11.06;98.13;100645.41;10546681;28;20023;-74
2022/09/24 02:14:06;;;;;;;;;;;;;;;11.07;97.76;100639.34;10545253;28;20074;-70
2022/09/24 02:19:13;;;;;;;;;;;;;;;11.05;97.18;100640.22;10545566;28;19934;-71
2022/09/24 02:24:17;;;;;;;;;;;;;;;10.94;97.13;100637.69;10546285;28;20019;-72
2022/09/24 02:29:22;;;;;;;;;;;;;;;10.84;97.83;100645.56;10545600;28;19924;-71
2022/09/24 02:34:29;;;;;;;;;;;;;;;10.78;97.40;100641.28;10545027;28;19950;-69
2022/09/24 02:39:32;;;;;;;;;;;;;;;10.73;97.35;100643.06;10545051;28;20015;-69
2022/09/24 02:44:36;;;;;;;;;;;;;;;10.66;97.80;100638.78;10544928;28;19984;-69
2022/09/24 02:49:40;;;;;;;;;;;;;;;10.63;97.42;100640.53;10544012;28;20306;-69
2022/09/24 02:54:43;;;;;;;;;;;;;;;10.62;97.56;100639.66;10544721;28;20312;-70
2022/09/24 02:59:46;;;;;;;;;;;;;;;10.66;97.61;100633.56;10544625;28;20290;-69
2022/09/24 03:04:51;;;;;;;;;;;;;;;10.56;97.22;100628.44;10543869;28;19931;-74
2022/09/24 03:09:54;;;;;;;;;;;;;;;10.48;97.85;100637.13;10543654;28;19935;-74
2022/09/24 03:14:57;;;;;;;;;;;;;;;10.41;98.07;100639.75;10543520;28;19935;-71
2022/09/24 03:20:01;;;;;;;;;;;;;;;10.46;98.47;100633.69;10543539;28;19927;-70
2022/09/24 03:25:05;;;;;;;;;;;;;;;10.46;97.69;100638.88;10542597;28;20016;-72
2022/09/24 03:35:30;;;;;;;;;;;;;;;10.45;97.45;100624.19;10543137;28;19930;-71
2022/09/24 03:40:33;;;;;;;;;;;;;;;10.40;97.83;100614.69;10542986;28;19924;-72
2022/09/24 03:45:37;;;;;;;;;;;;;;;10.39;97.34;100631.97;10543418;28;19934;-75
2022/09/24 03:50:41;;;;;;;;;;;;;;;10.30;97.22;100633.78;10542753;28;20225;-72
2022/09/24 03:55:45;;;;;;;;;;;;;;;10.25;97.35;100632.94;10542273;28;19924;-70
2022/09/24 04:00:48;;;;;;;;;;;;;;;10.23;97.00;100634.66;10542553;28;20015;-70
2022/09/24 04:05:53;;;;;;;;;;;;;;;10.16;97.12;100631.22;10542543;28;19934;-71
2022/09/24 04:10:56;;;;;;;;;;;;;;;10.08;97.86;100634.66;10190081;28;10000481;-75
2022/09/24 04:16:01;;;;;;;;;;;;;;;10.10;97.62;100632.97;10536301;28;19938;-65
2022/09/24 04:21:06;;;;;;;;;;;;;;;9.92;98.48;100633.88;10536295;28;19959;-73
2022/09/24 04:26:09;;;;;;;;;;;;;;;10.06;97.83;100628.66;10538918;28;19935;-74
2022/09/24 04:31:12;;;;;;;;;;;;;;;10.03;97.39;100621.72;10537876;28;19924;-72
2022/09/24 04:36:17;;;;;;;;;;;;;;;9.93;97.97;100629.56;10536738;28;19928;-73
2022/09/24 04:41:20;;;;;;;;;;;;;;;10.04;97.71;100632.97;10543590;28;19928;-72
2022/09/24 04:46:23;;;;;;;;;;;;;;;10.00;97.75;100636.44;10543343;28;19935;-75
2022/09/24 04:51:27;;;;;;;;;;;;;;;9.95;98.18;100633.88;10543080;28;20010;-72
2022/09/24 04:56:31;;;;;;;;;;;;;;;9.84;99.08;100639.94;10542833;28;20335;-72
2022/09/24 05:01:34;;;;;;;;;;;;;;;9.89;99.50;100633.00;10543095;28;19935;-73
2022/09/24 05:06:38;;;;;;;;;;;;;;;9.97;99.74;100642.53;10542462;28;19935;-71
2022/09/24 05:11:41;;;;;;;;;;;;;;;9.92;99.67;100638.22;10552598;28;19931;-72
2022/09/24 05:16:45;;;;;;;;;;;;;;;9.97;100.00;100644.25;10567432;28;19924;-73
2022/09/24 05:21:49;;;;;;;;;;;;;;;10.10;99.51;100646.81;10584208;28;20259;-73
2022/09/24 05:27:10;;;;;;;;;;;;;;;10.10;99.42;100638.16;10584083;28;19923;-72
2022/09/24 05:32:15;;;;;;;;;;;;;;;10.09;99.81;100642.50;10584112;28;20007;-72
2022/09/24 05:37:19;;;;;;;;;;;;;;;10.06;100.00;100636.44;10583390;28;20283;-75
2022/09/24 05:42:23;;;;;;;;;;;;;;;10.22;100.00;100633.78;10583390;28;19967;-74
2022/09/24 05:47:26;;;;;;;;;;;;;;;10.33;100.00;100633.75;10583002;28;19938;-74
2022/09/24 05:52:31;;;;;;;;;;;;;;;10.48;100.00;100631.06;10582607;28;19927;-73
2022/09/24 05:57:34;;;;;;;;;;;;;;;10.51;100.00;100636.25;10584583;28;20348;-73
2022/09/24 06:02:37;;;;;;;;;;;;;;;10.58;100.00;100640.53;10585549;28;19977;-73
2022/09/24 06:07:41;;;;;;;;;;;;;;;10.61;100.00;100639.66;10583188;28;20270;-75
2022/09/24 06:12:44;;;;;;;;;;;;;;;10.80;100.00;100644.75;10562887;28;20311;-73
2022/09/24 06:17:47;;;;;;;;;;;;;;;10.83;100.00;100644.72;10539585;28;20046;-72
2022/09/24 06:22:54;;;;;;;;;;;;;;;11.00;100.00;100648.06;10539407;28;19943;-73
2022/09/24 06:27:59;;;;;;;;;;;;;;;11.04;100.00;100644.56;10539246;28;19974;-73
2022/09/24 06:33:04;;;;;;;;;;;;;;;11.25;100.00;100641.78;10539400;28;20355;-72
2022/09/24 06:38:10;;;;;;;;;;;;;;;11.24;100.00;100649.59;10538711;28;20030;-72
2022/09/24 06:43:14;;;;;;;;;;;;;;;11.37;100.00;100656.44;10539329;28;19928;-73
2022/09/24 06:48:17;;;;;;;;;;;;;;;11.47;100.00;100656.34;10538961;28;19924;-74
2022/09/24 06:53:21;;;;;;;;;;;;;;;11.62;100.00;100653.59;10538054;28;20272;-73
2022/09/24 06:58:25;;;;;;;;;;;;;;;11.73;100.00;100655.25;10538273;28;20295;-74
2022/09/24 07:03:30;;;;;;;;;;;;;;;11.88;100.00;100649.88;10538308;28;19928;-73
2022/09/24 07:08:34;;;;;;;;;;;;;;;12.04;100.00;100662.72;10537726;28;20015;-74
2022/09/24 07:13:37;;;;;;;;;;;;;;;12.14;100.00;100658.25;10563659;28;20335;-75
2022/09/24 07:18:40;;;;;;;;;;;;;;;12.21;98.99;100660.78;10579937;28;19938;-74
2022/09/24 07:23:45;;;;;;;;;;;;;;;12.36;99.67;100664.91;10579498;28;20042;-74
2022/09/24 07:28:48;;;;;;;;;;;;;;;12.49;98.14;100666.50;10580240;28;19939;-73
2022/09/24 07:33:52;;;;;;;;;;;;;;;12.54;96.32;100669.91;10581102;28;19924;-73
2022/09/24 07:38:57;;;;;;;;;;;;;;;12.60;97.12;100662.88;10581262;28;20233;-75
2022/09/24 07:44:00;;;;;;;;;;;;;;;12.59;94.20;100670.69;10579538;28;20018;-74
2022/09/24 07:49:05;;;;;;;;;;;;;;;12.79;94.43;100663.47;10579436;28;19935;-73
2022/09/24 07:54:10;;;;;;;;;;;;;;;12.90;93.39;100653.75;10578529;28;19927;-73
2022/09/24 07:59:19;;;;;;;;;;;;;;;13.03;91.29;100655.31;10578557;28;19937;-73
2022/09/24 08:04:22;;;;;;;;;;;;;;;13.05;89.89;100648.34;10578619;28;19927;-75
2022/09/24 08:09:27;;;;;;;;;;;;;;;13.21;88.71;100647.22;10578315;28;19934;-74
2022/09/24 08:14:30;;;;;;;;;;;;;;;13.42;88.23;100646.88;10550316;28;19924;-73
2022/09/24 08:19:33;;;;;;;;;;;;;;;13.58;86.94;100648.31;10544676;28;20416;-73
2022/09/24 08:24:37;;;;;;;;;;;;;;;13.62;85.29;100649.13;10544185;28;20280;-74
2022/09/24 08:29:40;;;;;;;;;;;;;;;13.71;84.36;100655.06;10543787;28;19953;-75
2022/09/24 08:34:44;;;;;;;;;;;;;;;13.82;83.31;100647.03;10543784;28;19924;-74
2022/09/24 08:39:48;;;;;;;;;;;;;;;13.96;82.93;100651.97;10544366;28;20001;-73
2022/09/24 08:50:15;;;;;;;;;;;;;;;14.06;80.68;100658.75;10543699;28;20014;-75
2022/09/24 08:55:21;;;;;;;;;;;;;;;14.13;80.20;100650.78;10542742;28;19938;-73
2022/09/24 09:00:25;;;;;;;;;;;;;;;14.27;77.90;100650.53;10543922;28;19963;-74
2022/09/24 09:05:36;;;;;;;;;;;;;;;14.48;76.69;100652.69;10544504;28;19974;-74
2022/09/24 09:10:42;;;;;;;;;;;;;;;14.68;74.83;100637.44;10546152;28;20319;-73
2022/09/24 09:15:48;;;;;;;;;;;;;;;14.87;73.32;100639.63;10585255;28;19934;-74
2022/09/24 09:20:51;;;;;;;;;;;;;;;15.02;70.27;100644.47;10585120;28;19945;-74
2022/09/24 09:25:56;;;;;;;;;;;;;;;15.18;69.22;100638.88;10583329;28;19924;-75
2022/09/24 09:31:05;;;;;;;;;;;;;;;15.47;68.14;100625.94;10583816;28;20309;-73
2022/09/24 09:36:19;;;;;;;;;;;;;;;15.72;67.25;100629.66;10583511;28;20294;-75
2022/09/24 09:41:29;;;;;;;;;;;;;;;15.97;66.28;100623.72;10583403;28;19942;-70
2022/09/24 09:46:34;;;;;;;;;;;;;;;16.40;65.91;100625.09;10583303;28;20555;-73
2022/09/24 09:51:40;;;;;;;;;;;;;;;16.68;64.39;100616.41;10583537;28;20022;-70
2022/09/24 09:56:47;;;;;;;;;;;;;;;17.13;63.19;100616.69;10582617;28;19958;-70
2022/09/24 10:01:54;;;;;;;;;;;;;;;17.47;61.53;100612.06;10583013;28;19930;-71
2022/09/24 10:07:05;;;;;;;;;;;;;;;17.54;61.28;100616.22;10582532;28;19927;-72
2022/09/24 10:12:14;;;;;;;;;;;;;;;17.49;61.37;100612.03;10583311;28;19992;-72
2022/09/24 10:17:19;;;;;;;;;;;;;;;17.24;60.64;100609.31;10578551;28;19924;-70
2022/09/24 10:22:23;;;;;;;;;;;;;;;17.13;59.85;100608.84;10539737;28;19932;-72
2022/09/24 10:27:32;;;;;;;;;;;;;;;17.18;60.74;100615.66;10539311;28;19938;-70
2022/09/24 10:32:34;;;;;;;;;;;;;;;17.26;60.62;100607.50;10539936;28;20011;-70
2022/09/24 10:37:37;;;;;;;;;;;;;;;17.36;59.46;100601.03;10540885;28;20373;-71
2022/09/24 10:42:42;;;;;;;;;;;;;;;17.48;58.99;100600.66;10540009;28;19978;-69
2022/09/24 10:47:50;;;;;;;;;;;;;;;17.75;57.02;100597.09;10539419;28;20340;-69
2022/09/24 10:52:54;;;;;;;;;;;;;;;18.36;56.03;100582.56;10539244;28;19928;-70
2022/09/24 10:58:01;;;;;;;;;;;;;;;18.25;55.18;100575.09;10538583;28;19924;-70
2022/09/24 11:03:31;;;;;;;;;;;;;;;18.09;54.37;100581.81;10538110;28;20027;-74
2022/09/24 11:08:50;;;;;;;;;;;;;;;18.21;54.40;100580.50;10538447;28;19924;-76
2022/09/24 11:14:01;;;;;;;;;;;;;;;18.30;52.56;100578.38;10537547;28;20015;-76
2022/09/24 11:19:07;;;;;;;;;;;;;;;18.35;52.38;100571.19;10538417;28;19931;-79
2022/09/24 11:24:19;;;;;;;;;;;;;;;19.30;51.70;100569.97;10538785;28;19932;-75
2022/09/24 11:29:29;;;;;;;;;;;;;;;20.52;48.79;100553.88;10541622;28;19935;-75
2022/09/24 11:34:51;;;;;;;;;;;;;;;21.47;47.12;100567.63;10543285;28;19924;-74
2022/09/24 11:40:04;;;;;;;;;;;;;;;22.14;45.84;100553.53;10542964;28;20339;-75
2022/09/24 11:45:18;;;;;;;;;;;;;;;22.83;43.69;100553.13;10542816;28;19978;-74
2022/09/24 11:50:27;;;;;;;;;;;;;;;23.04;40.84;100547.53;10542131;28;20015;-75
2022/09/24 11:55:33;;;;;;;;;;;;;;;23.14;41.18;100548.72;10542788;28;19928;-79
2022/09/24 12:00:40;;;;;;;;;;;;;;;22.45;41.17;100546.44;10542670;28;20256;-75
2022/09/24 12:05:45;;;;;;;;;;;;;;;22.20;42.44;100545.25;10542498;28;20019;-71
2022/09/24 12:10:52;;;;;;;;;;;;;;;21.34;43.00;100545.44;10542272;28;20011;-72
2022/09/24 12:15:59;;;;;;;;;;;;;;;21.55;41.63;100532.91;10206560;28;10000107;-77
2022/09/24 12:21:06;;;;;;;;;;;;;;;22.05;41.41;100522.28;10578507;28;19931;-74
2022/09/24 12:26:10;;;;;;;;;;;;;;;23.09;39.98;100521.66;10578160;28;20407;-73
2022/09/24 12:36:52;;;;;;;;;;;;;;;24.11;38.98;100518.00;10578473;28;19927;-75
2022/09/24 12:42:01;;;;;;;;;;;;;;;24.11;38.60;100518.00;10578260;28;19927;-73
2022/09/24 12:47:13;;;;;;;;;;;;;;;23.42;39.24;100509.06;10577716;28;19924;-73
2022/09/24 12:52:18;;;;;;;;;;;;;;;22.95;38.95;100509.22;10578333;28;19923;-76
2022/09/24 12:57:24;;;;;;;;;;;;;;;22.57;39.42;100506.09;10579752;28;20397;-75
2022/09/24 13:02:31;;;;;;;;;;;;;;;22.22;39.65;100499.28;10586723;28;19954;-67
2022/09/24 13:07:36;;;;;;;;;;;;;;;21.74;40.35;100512.50;10587179;28;19928;-70
2022/09/24 13:12:39;;;;;;;;;;;;;;;21.36;40.68;100521.56;10585481;28;19939;-72
2022/09/24 13:17:43;;;;;;;;;;;;;;;20.94;41.25;100518.44;10549420;28;19958;-71
2022/09/24 13:22:55;;;;;;;;;;;;;;;20.30;41.29;100520.69;10541679;28;19928;-70
2022/09/24 13:28:00;;;;;;;;;;;;;;;20.05;43.14;100514.84;10541603;28;19967;-69
2022/09/24 13:33:15;;;;;;;;;;;;;;;19.75;44.36;100505.69;10542588;28;19924;-71
2022/09/24 13:38:22;;;;;;;;;;;;;;;19.53;45.04;100500.53;10541471;28;20042;-70
2022/09/24 13:43:35;;;;;;;;;;;;;;;19.39;46.21;100508.19;10541585;28;20015;-68
2022/09/24 13:48:41;;;;;;;;;;;;;;;19.15;46.88;100503.94;10540932;28;20341;-71
2022/09/24 13:53:48;;;;;;;;;;;;;;;18.78;47.21;100514.28;10540629;28;19928;-68
2022/09/24 13:58:51;;;;;;;;;;;;;;;18.62;47.90;100505.31;10540228;28;19932;-71
2022/09/24 14:03:56;;;;;;;;;;;;;;;18.51;47.18;100504.91;10540493;28;20394;-70
2022/09/24 14:09:00;;;;;;;;;;;;;;;18.29;47.11;100504.88;10539379;28;19924;-71
2022/09/24 14:14:10;;;;;;;;;;;;;;;18.07;47.37;100509.22;10543603;28;20382;-69
2022/09/24 14:19:15;;;;;;;;;;;;;;;17.99;48.39;100512.16;10581742;28;20022;-68
2022/09/24 14:24:21;;;;;;;;;;;;;;;17.92;48.93;100508.03;10582300;28;19938;-69
2022/09/24 14:29:26;;;;;;;;;;;;;;;17.86;49.04;100510.06;10582239;28;19967;-69
2022/09/24 14:34:33;;;;;;;;;;;;;;;17.75;49.60;100507.81;10581870;28;19934;-70
2022/09/24 14:39:38;;;;;;;;;;;;;;;17.65;49.61;100510.84;10548580;28;19924;-67
2022/09/24 14:44:45;;;;;;;;;;;;;;;17.55;50.09;100512.91;10540000;28;20413;-67
2022/09/24 14:49:50;;;;;;;;;;;;;;;17.59;48.94;100514.53;10514230;28;19928;-70
2022/09/24 14:55:00;;;;;;;;;;;;;;;17.54;48.65;100512.97;10533827;28;19939;-68
2022/09/24 15:00:18;;;;;;;;;;;;;;;17.44;47.58;100504.56;10497978;28;19929;-70
2022/09/24 15:05:25;;;;;;;;;;;;;;;17.29;47.52;100497.25;10496379;28;19933;-70
2022/09/24 15:10:28;;;;;;;;;;;;;;;17.20;47.19;100497.56;10529390;28;20018;-72
2022/09/24 15:15:31;;;;;;;;;;;;;;;17.05;48.39;100498.91;10537443;28;19955;-68
2022/09/24 15:20:35;;;;;;;;;;;;;;;16.95;49.87;100501.91;10536364;28;20607;-71
2022/09/24 15:25:42;;;;;;;;;;;;;;;16.83;52.12;100492.69;10536885;28;20309;-69
2022/09/24 15:30:45;;;;;;;;;;;;;;;16.81;52.71;100498.88;10537108;28;19927;-69
2022/09/24 15:35:49;;;;;;;;;;;;;;;16.69;53.77;100494.91;10536998;28;20438;-73
2022/09/24 15:40:52;;;;;;;;;;;;;;;16.67;53.88;100499.34;10536856;28;19942;-75
2022/09/24 15:45:55;;;;;;;;;;;;;;;16.60;55.23;100502.22;10536688;28;19928;-72
2022/09/24 15:51:01;;;;;;;;;;;;;;;16.52;54.35;100506.84;10504066;28;19936;-74
2022/09/24 15:56:12;;;;;;;;;;;;;;;16.37;56.92;100507.28;10494361;28;19936;-72
2022/09/24 16:01:17;;;;;;;;;;;;;;;16.23;58.68;100496.38;10494297;28;20262;-74
2022/09/24 16:06:22;;;;;;;;;;;;;;;16.07;60.11;100496.00;10494566;28;19928;-73
2022/09/24 16:11:26;;;;;;;;;;;;;;;15.91;61.32;100500.00;10494369;28;19928;-72
2022/09/24 16:16:29;;;;;;;;;;;;;;;15.77;61.38;100504.78;10542568;28;19970;-72
2022/09/24 16:21:34;;;;;;;;;;;;;;;15.67;62.34;100512.00;10548051;28;20332;-71
2022/09/24 16:26:37;;;;;;;;;;;;;;;15.51;63.46;100504.66;10538138;28;19967;-70
2022/09/24 16:31:40;;;;;;;;;;;;;;;15.34;64.86;100512.91;10537766;28;19984;-70
2022/09/24 16:36:45;;;;;;;;;;;;;;;15.20;66.08;100509.81;10544421;28;19978;-71
2022/09/24 16:41:49;;;;;;;;;;;;;;;15.12;66.04;100510.94;10544745;28;19924;-73
2022/09/24 16:46:52;;;;;;;;;;;;;;;15.01;67.16;100511.19;10543913;28;20011;-72
2022/09/24 16:51:56;;;;;;;;;;;;;;;14.88;67.64;100509.78;10543960;28;19959;-72
2022/09/24 16:57:00;;;;;;;;;;;;;;;14.77;68.51;100510.03;10542868;28;19950;-72
2022/09/24 17:02:03;;;;;;;;;;;;;;;14.80;69.19;100514.34;10542794;28;20023;-72
2022/09/24 17:07:09;;;;;;;;;;;;;;;14.71;70.47;100510.19;10543523;28;19959;-72
2022/09/24 17:12:12;;;;;;;;;;;;;;;14.56;70.16;100512.31;10542967;28;20019;-72
2022/09/24 17:17:15;;;;;;;;;;;;;;;14.50;71.69;100508.09;10572664;28;19938;-72
2022/09/24 17:22:19;;;;;;;;;;;;;;;14.50;72.41;100512.47;10584508;28;19930;-72
2022/09/24 17:27:23;;;;;;;;;;;;;;;14.45;72.58;100515.19;10542626;28;19924;-72
2022/09/24 17:32:25;;;;;;;;;;;;;;;14.42;72.65;100514.41;10541970;28;20257;-76
2022/09/24 17:37:30;;;;;;;;;;;;;;;14.37;72.71;100517.13;10541763;28;19963;-73
2022/09/24 17:42:33;;;;;;;;;;;;;;;14.27;72.97;100520.81;10541764;28;19928;-72
2022/09/24 17:52:54;;;;;;;;;;;;;;;14.17;73.80;100526.28;10540301;28;19928;-73
2022/09/24 17:57:57;;;;;;;;;;;;;;;14.11;74.25;100532.47;10523555;28;20418;-75
2022/09/24 18:03:00;;;;;;;;;;;;;;;13.85;76.47;100537.38;10542275;28;20007;-71
2022/09/24 18:08:05;;;;;;;;;;;;;;;13.82;77.48;100535.69;10542781;28;19935;-70
2022/09/24 18:13:08;;;;;;;;;;;;;;;13.74;77.11;100545.41;10541495;28;19938;-70
2022/09/24 18:18:11;;;;;;;;;;;;;;;13.66;77.52;100543.84;10539723;28;19924;-71
2022/09/24 18:23:16;;;;;;;;;;;;;;;13.61;78.55;100543.97;10539736;28;20034;-69
2022/09/24 18:28:19;;;;;;;;;;;;;;;13.64;78.66;100538.69;10539450;28;19924;-71
2022/09/24 18:33:23;;;;;;;;;;;;;;;13.61;78.50;100538.75;10539138;28;19932;-70
2022/09/24 18:38:28;;;;;;;;;;;;;;;13.54;79.60;100544.97;10539312;28;19927;-71
2022/09/24 18:43:31;;;;;;;;;;;;;;;13.47;80.25;100543.34;10538758;28;19924;-76
2022/09/24 18:48:35;;;;;;;;;;;;;;;13.58;80.00;100550.97;10539308;28;19978;-75
2022/09/24 18:53:39;;;;;;;;;;;;;;;13.64;79.92;100550.84;10539245;28;20365;-77
2022/09/24 18:58:42;;;;;;;;;;;;;;;13.57;79.97;100555.31;10538336;28;19924;-72
2022/09/24 19:03:45;;;;;;;;;;;;;;;13.57;80.47;100557.94;10538280;28;20043;-74
2022/09/24 19:08:49;;;;;;;;;;;;;;;13.50;80.81;100553.72;10538079;28;20069;-74
2022/09/24 19:13:53;;;;;;;;;;;;;;;13.42;81.39;100563.44;10539952;28;20349;-74
2022/09/24 19:18:58;;;;;;;;;;;;;;;13.38;81.86;100556.56;10579476;28;19928;-76
2022/09/24 19:24:05;;;;;;;;;;;;;;;13.30;82.74;100557.59;10579583;28;19962;-76
2022/09/24 19:29:08;;;;;;;;;;;;;;;13.28;83.79;100555.00;10580364;28;19924;-77
2022/09/24 19:34:12;;;;;;;;;;;;;;;13.25;84.55;100555.06;10564099;28;20316;-78
2022/09/24 19:39:17;;;;;;;;;;;;;;;13.22;84.27;100565.53;10581576;28;19934;-78
2022/09/24 19:44:20;;;;;;;;;;;;;;;13.13;85.29;100559.63;10581250;28;20010;-74
2022/09/24 19:49:23;;;;;;;;;;;;;;;13.15;85.00;100561.31;10579122;28;20479;-77
2022/09/24 19:54:28;;;;;;;;;;;;;;;13.08;85.44;100562.28;10578915;28;19938;-76
2022/09/24 19:59:31;;;;;;;;;;;;;;;13.02;85.82;100556.34;10578948;28;19964;-75
2022/09/24 20:04:34;;;;;;;;;;;;;;;12.93;86.58;100564.25;10578690;28;20010;-76
2022/09/24 20:09:39;;;;;;;;;;;;;;;12.91;87.27;100553.88;10584271;28;19988;-75
2022/09/24 20:14:42;;;;;;;;;;;;;;;12.90;86.78;100549.56;10578432;28;19938;-77
2022/09/24 20:19:45;;;;;;;;;;;;;;;12.86;86.82;100554.84;10544836;28;20305;-75
2022/09/24 20:24:49;;;;;;;;;;;;;;;12.79;87.57;100549.72;10545176;28;19934;-76
2022/09/24 20:29:53;;;;;;;;;;;;;;;12.82;88.05;100544.47;10544461;28;20297;-76
2022/09/24 20:34:57;;;;;;;;;;;;;;;12.78;88.20;100545.41;10543876;28;20446;-74
2022/09/24 20:40:02;;;;;;;;;;;;;;;12.76;88.38;100544.56;10544043;28;19928;-74
2022/09/24 20:45:06;;;;;;;;;;;;;;;12.70;88.74;100549.03;10544066;28;20010;-73
2022/09/24 20:50:10;;;;;;;;;;;;;;;12.73;88.39;100547.22;10543504;28;19924;-75
2022/09/24 20:55:15;;;;;;;;;;;;;;;12.64;88.65;100543.91;10543014;28;19924;-74
2022/09/24 21:00:18;;;;;;;;;;;;;;;12.68;88.63;100549.03;10543030;28;19930;-74
2022/09/24 21:05:21;;;;;;;;;;;;;;;12.68;88.84;100550.78;10543116;28;20031;-74
2022/09/24 21:10:25;;;;;;;;;;;;;;;12.63;89.21;100547.41;10543837;28;19924;-74
2022/09/24 21:15:28;;;;;;;;;;;;;;;12.55;89.19;100544.91;10559293;28;19935;-74
2022/09/24 21:20:32;;;;;;;;;;;;;;;12.59;88.82;100543.97;10586875;28;19936;-75
2022/09/24 21:25:36;;;;;;;;;;;;;;;12.51;88.75;100548.44;10585804;28;19924;-75
2022/09/24 21:30:58;;;;;;;;;;;;;;;12.50;89.07;100557.13;10584312;28;20368;-72
2022/09/24 21:36:01;;;;;;;;;;;;;;;12.47;88.63;100551.97;10583742;28;19934;-74
2022/09/24 21:41:07;;;;;;;;;;;;;;;12.41;88.96;100551.19;10583894;28;20054;-74
2022/09/24 21:46:10;;;;;;;;;;;;;;;12.34;89.12;100554.75;10583821;28;20278;-74
2022/09/24 21:51:18;;;;;;;;;;;;;;;12.23;89.59;100554.06;10583521;28;19938;-74
2022/09/24 21:56:23;;;;;;;;;;;;;;;12.22;90.23;100542.78;10583601;28;19924;-75
2022/09/24 22:01:28;;;;;;;;;;;;;;;12.18;90.66;100553.28;10582863;28;20305;-75
2022/09/24 22:06:31;;;;;;;;;;;;;;;12.14;90.04;100551.56;10582766;28;20023;-75
2022/09/24 22:11:36;;;;;;;;;;;;;;;12.00;90.30;100546.56;10582538;28;19962;-74
2022/09/24 22:16:40;;;;;;;;;;;;;;;11.97;91.09;100549.22;10556832;28;19934;-74
2022/09/24 22:21:43;;;;;;;;;;;;;;;11.89;90.88;100551.03;10540201;28;19932;-78
2022/09/24 22:26:47;;;;;;;;;;;;;;;11.88;91.01;100548.44;10540134;28;19934;-79
2022/09/24 22:31:50;;;;;;;;;;;;;;;11.77;91.18;100550.34;10539417;28;20252;-75
2022/09/24 22:36:53;;;;;;;;;;;;;;;11.76;91.94;100543.38;10539815;28;20284;-75
2022/09/24 22:41:58;;;;;;;;;;;;;;;11.73;91.66;100540.84;10540191;28;19938;-74
2022/09/24 22:47:01;;;;;;;;;;;;;;;11.69;91.79;100545.22;10539565;28;19938;-75
2022/09/24 22:52:04;;;;;;;;;;;;;;;11.63;91.97;100540.06;10539355;28;19937;-76
2022/09/24 22:57:08;;;;;;;;;;;;;;;11.51;92.34;100548.84;10540553;28;20305;-75
2022/09/24 23:02:11;;;;;;;;;;;;;;;11.45;92.77;100532.47;10539706;28;19935;-75
2022/09/24 23:07:15;;;;;;;;;;;;;;;11.44;92.76;100531.59;10538767;28;19938;-74
2022/09/24 23:12:20;;;;;;;;;;;;;;;11.38;92.97;100526.47;10538249;28;19943;-77
2022/09/24 23:17:23;;;;;;;;;;;;;;;11.37;92.94;100523.91;10569970;28;19927;-74
2022/09/24 23:22:26;;;;;;;;;;;;;;;11.45;92.05;100527.25;10580208;28;20371;-79
2022/09/24 23:27:31;;;;;;;;;;;;;;;11.38;92.05;100526.47;10580441;28;20027;-76
2022/09/24 23:32:34;;;;;;;;;;;;;;;11.38;91.85;100523.00;10579846;28;19942;-76
2022/09/24 23:37:37;;;;;;;;;;;;;;;11.29;91.80;100529.16;10579216;28;20328;-75
2022/09/24 23:42:41;;;;;;;;;;;;;;;11.25;91.86;100526.63;10578385;28;19928;-78
2022/09/24 23:47:44;;;;;;;;;;;;;;;11.13;91.91;100527.56;10579807;28;20606;-71
2022/09/24 23:52:47;;;;;;;;;;;;;;;11.01;92.46;100529.44;10578943;28;20252;-68
2022/09/24 23:57:51;;;;;;;;;;;;;;;10.96;92.99;100513.91;10579361;28;19924;-74
